Legend — WDH2751 — position and weather

sailwx.info

Track history (hours):
 
Tides and Currents Weather Stations Pressure Air Temp Water Temp Dewpoint Dewpoint Depression Visibility Wind Speed Wind Dir Waves Ship Positions

Legend

Owner: Sea Adventure 80 Sportfishing, Encinitas, CA. More information available from US FCC via Universal Licensing System and Coast Guard Vessel Documentation Center.

Last reported at 2018-Jun-25 15:30 UTC. Time now 2018-Jun-25 15:41 UTC.
Position N 32°43' W 117°14'.

Type: Passenger vessel. MMSI: 367600830.

Date/timePositionNaut miles runAvg speedWind from/ knotsBaromVisibWave heightAir tempDewpointWater temp
2018-Jun-25 15:30N 32°43' W 117°14'0 0.0
2018-Jun-25 15:01N 32°43' W 117°14'0 0.0
2018-Jun-25 14:30N 32°43' W 117°14'0 0.0
2018-Jun-25 14:00N 32°43' W 117°14'0 0.0
2018-Jun-25 13:30N 32°43' W 117°14'0 0.0
2018-Jun-25 13:00N 32°43' W 117°14'0 0.0
2018-Jun-25 12:31N 32°43' W 117°14'0 0.0
2018-Jun-25 12:00N 32°43' W 117°14'0 0.0
2018-Jun-25 11:31N 32°43' W 117°14'0 0.0
2018-Jun-25 11:01N 32°43' W 117°14'0 0.0
2018-Jun-25 10:30N 32°43' W 117°14'0 0.0
2018-Jun-25 10:01N 32°43' W 117°14'0 0.0
2018-Jun-25 09:31N 32°43' W 117°14'0 0.0
2018-Jun-25 09:00N 32°43' W 117°14'0 0.0
2018-Jun-25 08:28N 32°43' W 117°14'0 0.0
2018-Jun-25 08:00N 32°43' W 117°14'0 0.0
2018-Jun-25 07:31N 32°43' W 117°14'0 0.0
2018-Jun-25 07:00N 32°43' W 117°14'0 0.0
2018-Jun-25 06:31N 32°43' W 117°14'0 0.0
2018-Jun-25 06:01N 32°43' W 117°14'0 0.0
2018-Jun-25 05:30N 32°43' W 117°14'0 0.0
2018-Jun-25 05:00N 32°43' W 117°14'0 0.0
2018-Jun-25 04:30N 32°43' W 117°14'0 0.0
2018-Jun-25 04:00N 32°43' W 117°14'0 0.0
2018-Jun-25 03:30N 32°43' W 117°14'0 0.0
2018-Jun-25 03:00N 32°43' W 117°14'0 0.0
2018-Jun-25 02:30N 32°43' W 117°14'0 0.0
2018-Jun-25 02:01N 32°43' W 117°14'0 0.0
2018-Jun-25 01:31N 32°43' W 117°14'0 0.0
2018-Jun-25 01:00N 32°43' W 117°14'0 0.0
2018-Jun-25 00:30N 32°43' W 117°14'0 0.0
2018-Jun-25 00:00N 32°43' W 117°14'0 0.0
2018-Jun-24 23:30N 32°43' W 117°14'0 0.0
2018-Jun-24 23:01N 32°43' W 117°14'0 0.0
2018-Jun-24 22:30N 32°43' W 117°14'0 0.0
2018-Jun-24 22:00N 32°43' W 117°14'0 0.0
2018-Jun-24 21:31N 32°43' W 117°14'0 0.0
2018-Jun-24 21:00N 32°43' W 117°14'0 0.0
2018-Jun-24 20:30N 32°43' W 117°14'0 0.0
2018-Jun-24 20:00N 32°43' W 117°14'0 0.0
2018-Jun-24 19:30N 32°43' W 117°14'0 0.0
2018-Jun-24 19:00N 32°43' W 117°14'  
2018-Jun-18 18:22N 32°48' W 117°18'2 4.7
2018-Jun-18 18:00N 32°50' W 117°18'1 1.6
2018-Jun-18 17:30N 32°51' W 117°18'1 2.8
2018-Jun-18 17:00N 32°52' W 117°19'2 3.0
2018-Jun-18 16:30N 32°51' W 117°18'1 2.4
2018-Jun-18 15:59N 32°50' W 117°19'1 2.3
2018-Jun-18 15:30N 32°49' W 117°19'  
Track history (hours):
 
Tides and Currents Weather Stations Pressure Air Temp Water Temp Dewpoint Dewpoint Depression Visibility Wind Speed Wind Dir Waves Ship Positions

Legend

Owner: Sea Adventure 80 Sportfishing, Encinitas, CA. More information available from US FCC via Universal Licensing System and Coast Guard Vessel Documentation Center.

Last reported at 2018-Jun-25 15:30 UTC. Time now 2018-Jun-25 15:41 UTC.
Position N 32°43' W 117°14'.

Type: Passenger vessel. MMSI: 367600830.

Date/timePositionNaut miles runAvg speedWind from/ knotsBaromVisibWave heightAir tempDewpointWater temp
2018-Jun-25 15:30N 32°43' W 117°14'0 0.0
2018-Jun-25 15:01N 32°43' W 117°14'0 0.0
2018-Jun-25 14:30N 32°43' W 117°14'0 0.0
2018-Jun-25 14:00N 32°43' W 117°14'0 0.0
2018-Jun-25 13:30N 32°43' W 117°14'0 0.0
2018-Jun-25 13:00N 32°43' W 117°14'0 0.0
2018-Jun-25 12:31N 32°43' W 117°14'0 0.0
2018-Jun-25 12:00N 32°43' W 117°14'0 0.0
2018-Jun-25 11:31N 32°43' W 117°14'0 0.0
2018-Jun-25 11:01N 32°43' W 117°14'0 0.0
2018-Jun-25 10:30N 32°43' W 117°14'0 0.0
2018-Jun-25 10:01N 32°43' W 117°14'0 0.0
2018-Jun-25 09:31N 32°43' W 117°14'0 0.0
2018-Jun-25 09:00N 32°43' W 117°14'0 0.0
2018-Jun-25 08:28N 32°43' W 117°14'0 0.0
2018-Jun-25 08:00N 32°43' W 117°14'0 0.0
2018-Jun-25 07:31N 32°43' W 117°14'0 0.0
2018-Jun-25 07:00N 32°43' W 117°14'0 0.0
2018-Jun-25 06:31N 32°43' W 117°14'0 0.0
2018-Jun-25 06:01N 32°43' W 117°14'0 0.0
2018-Jun-25 05:30N 32°43' W 117°14'0 0.0
2018-Jun-25 05:00N 32°43' W 117°14'0 0.0
2018-Jun-25 04:30N 32°43' W 117°14'0 0.0
2018-Jun-25 04:00N 32°43' W 117°14'0 0.0
2018-Jun-25 03:30N 32°43' W 117°14'0 0.0
2018-Jun-25 03:00N 32°43' W 117°14'0 0.0
2018-Jun-25 02:30N 32°43' W 117°14'0 0.0
2018-Jun-25 02:01N 32°43' W 117°14'0 0.0
2018-Jun-25 01:31N 32°43' W 117°14'0 0.0
2018-Jun-25 01:00N 32°43' W 117°14'0 0.0
2018-Jun-25 00:30N 32°43' W 117°14'0 0.0
2018-Jun-25 00:00N 32°43' W 117°14'0 0.0
2018-Jun-24 23:30N 32°43' W 117°14'0 0.0
2018-Jun-24 23:01N 32°43' W 117°14'0 0.0
2018-Jun-24 22:30N 32°43' W 117°14'0 0.0
2018-Jun-24 22:00N 32°43' W 117°14'0 0.0
2018-Jun-24 21:31N 32°43' W 117°14'0 0.0
2018-Jun-24 21:00N 32°43' W 117°14'0 0.0
2018-Jun-24 20:30N 32°43' W 117°14'0 0.0
2018-Jun-24 20:00N 32°43' W 117°14'0 0.0
2018-Jun-24 19:30N 32°43' W 117°14'0 0.0
2018-Jun-24 19:00N 32°43' W 117°14'  
2018-Jun-18 18:22N 32°48' W 117°18'2 4.7
2018-Jun-18 18:00N 32°50' W 117°18'1 1.6
2018-Jun-18 17:30N 32°51' W 117°18'1 2.8
2018-Jun-18 17:00N 32°52' W 117°19'2 3.0
2018-Jun-18 16:30N 32°51' W 117°18'1 2.4
2018-Jun-18 15:59N 32°50' W 117°19'1 2.3
2018-Jun-18 15:30N 32°49' W 117°19'  

Dump ship's entire track history